Time;durP1;ratioP1;P1;durP2;ratioP2;P2;SDS_P1;SDS_P2;PMS_P1;PMS_P2;Temp;Humidity;BMP_temperature;BMP_pressure;BME280_temperature;BME280_humidity;BME280_pressure;Samples;Min_cycle;Max_cycle;Signal;HPM_P1;HPM_P2
2022/10/09 00:02:24;;;;;;;;;;;;;;;14.58;69.09;100067.25;4307220;33;34224;-91
2022/10/09 00:08:03;;;;;;;;;;;;;;;14.67;68.08;100068.81;4315708;33;32684;-90
2022/10/09 00:10:44;;;;;;;;;;;;;;;14.54;68.02;100059.53;4303638;33;33718;-90
2022/10/09 00:13:14;;;;;;;;;;;;;;;14.44;68.32;100059.72;4314295;33;33227;-90
2022/10/09 00:15:49;;;;;;;;;;;;;;;14.44;68.25;100066.69;4308488;33;33500;-92
2022/10/09 00:18:20;;;;;;;;;;;;;;;14.36;68.87;100059.03;4318705;33;32955;-94
2022/10/09 00:20:54;;;;;;;;;;;;;;;14.52;68.32;100060.41;4312345;33;34475;-93
2022/10/09 00:23:26;;;;;;;;;;;;;;;14.35;68.93;100059.06;4314008;33;35123;-92
2022/10/09 00:25:59;;;;;;;;;;;;;;;14.42;68.80;100065.88;4314740;33;34282;-92
2022/10/09 00:28:38;;;;;;;;;;;;;;;14.20;69.49;100055.06;4309933;33;33546;-89
2022/10/09 00:31:12;;;;;;;;;;;;;;;14.55;68.48;100049.06;4316043;33;33430;-89
2022/10/09 00:33:42;;;;;;;;;;;;;;;14.48;68.59;100047.47;4318690;33;33625;-89
2022/10/09 00:36:19;;;;;;;;;;;;;;;14.43;68.83;100044.97;4304096;33;35830;-90
2022/10/09 00:38:54;;;;;;;;;;;;;;;14.44;69.09;100044.06;4311108;33;33878;-90
2022/10/09 00:41:33;;;;;;;;;;;;;;;14.37;69.39;100045.09;4314029;33;34976;-89
2022/10/09 00:44:24;;;;;;;;;;;;;;;14.42;69.15;100035.38;4324253;33;35030;-95
2022/10/09 00:47:02;;;;;;;;;;;;;;;14.49;69.15;100039.56;4313657;33;34737;-91
2022/10/09 00:49:32;;;;;;;;;;;;;;;14.25;70.36;100040.16;4312731;33;33849;-91
2022/10/09 00:52:11;;;;;;;;;;;;;;;14.47;69.44;100030.94;4311952;33;34319;-91
2022/10/09 00:54:46;;;;;;;;;;;;;;;14.37;69.87;100026.81;4314361;33;34020;-89
2022/10/09 00:57:21;;;;;;;;;;;;;;;14.63;68.95;100028.00;4312529;33;34065;-89
2022/10/09 00:59:55;;;;;;;;;;;;;;;14.50;69.63;100025.66;4314086;33;34721;-94
2022/10/09 01:02:28;;;;;;;;;;;;;;;14.50;69.60;100020.44;4309106;33;34886;-90
2022/10/09 01:04:58;;;;;;;;;;;;;;;14.56;69.52;100018.59;4313123;33;33564;-92
2022/10/09 01:07:40;;;;;;;;;;;;;;;14.38;70.22;100015.50;4314107;33;34611;-90
2022/10/09 01:10:25;;;;;;;;;;;;;;;14.53;69.77;100019.50;4291597;33;1203737;-91
2022/10/09 01:13:13;;;;;;;;;;;;;;;14.70;69.02;100009.53;4297839;33;32591;-89
2022/10/09 01:15:47;;;;;;;;;;;;;;;14.59;69.41;100013.28;4314151;33;34374;-92
2022/10/09 01:18:20;;;;;;;;;;;;;;;14.54;69.90;100009.94;4312810;33;33316;-90
2022/10/09 01:20:52;;;;;;;;;;;;;;;14.39;70.98;100022.41;4316169;33;32720;-95
2022/10/09 01:23:44;;;;;;;;;;;;;;;14.58;70.45;100028.09;4298278;33;34692;-94
2022/10/09 01:26:21;;;;;;;;;;;;;;;14.52;71.12;100016.03;4311041;33;34032;-92
2022/10/09 01:28:58;;;;;;;;;;;;;;;14.45;71.47;100019.69;4315547;33;32503;-92
2022/10/09 01:31:36;;;;;;;;;;;;;;;14.80;70.30;100020.59;4313921;33;33651;-94
2022/10/09 01:34:08;;;;;;;;;;;;;;;14.67;70.84;100021.81;4327432;33;33743;-90
2022/10/09 01:36:40;;;;;;;;;;;;;;;14.59;71.13;100018.50;4305173;33;34454;-91
2022/10/09 01:39:14;;;;;;;;;;;;;;;14.70;70.79;100027.81;4308977;33;35125;-90
2022/10/09 01:41:44;;;;;;;;;;;;;;;14.70;70.91;100029.56;4314168;33;34416;-89
2022/10/09 01:44:36;;;;;;;;;;;;;;;14.79;70.72;100031.09;4311443;33;33370;-91
2022/10/09 01:47:06;;;;;;;;;;;;;;;14.76;71.13;100025.94;4312000;33;32883;-93
2022/10/09 01:49:45;;;;;;;;;;;;;;;14.77;71.17;100027.66;4296938;33;36435;-90
2022/10/09 01:52:32;;;;;;;;;;;;;;;14.88;70.79;100023.00;4301391;33;32841;-90
2022/10/09 01:55:14;;;;;;;;;;;;;;;14.87;71.13;100023.91;4313630;33;33749;-91
2022/10/09 01:57:53;;;;;;;;;;;;;;;14.78;71.69;100017.16;4303042;33;35234;-91
2022/10/09 02:00:32;;;;;;;;;;;;;;;14.73;72.03;100021.62;4314651;33;33858;-93
2022/10/09 02:03:08;;;;;;;;;;;;;;;14.86;71.33;100030.91;4311244;33;31840;-92
2022/10/09 02:05:40;;;;;;;;;;;;;;;14.83;71.53;100027.50;4314620;33;33552;-92
2022/10/09 02:08:19;;;;;;;;;;;;;;;14.72;71.95;100028.62;4294554;33;32583;-91
2022/10/09 02:10:56;;;;;;;;;;;;;;;14.88;71.71;100023.87;4315235;33;35272;-90
2022/10/09 02:13:28;;;;;;;;;;;;;;;14.94;71.56;100035.94;4313799;33;32171;-92
2022/10/09 02:16:05;;;;;;;;;;;;;;;14.96;71.54;100033.28;4302300;33;36157;-91
2022/10/09 02:18:46;;;;;;;;;;;;;;;15.04;71.24;100040.00;4313789;33;34368;-90
2022/10/09 02:21:22;;;;;;;;;;;;;;;15.08;71.13;100043.41;4311238;33;37523;-94
2022/10/09 02:24:01;;;;;;;;;;;;;;;15.14;71.04;100043.25;4317790;33;33189;-93
2022/10/09 02:26:31;;;;;;;;;;;;;;;15.08;71.58;100041.66;4318298;33;34627;-90
2022/10/09 02:29:12;;;;;;;;;;;;;;;15.24;71.50;100044.69;4324647;33;36874;-94
2022/10/09 02:31:48;;;;;;;;;;;;;;;15.15;72.07;100044.97;4313340;33;34345;-92
2022/10/09 02:34:27;;;;;;;;;;;;;;;14.80;73.73;100044.09;4302771;33;31989;-90
2022/10/09 02:36:58;;;;;;;;;;;;;;;14.96;73.58;100054.19;4313014;33;35761;-93
2022/10/09 02:39:37;;;;;;;;;;;;;;;15.13;72.63;100059.81;4316890;33;36397;-93
2022/10/09 02:42:08;;;;;;;;;;;;;;;15.02;73.21;100060.09;4316229;33;34649;-90
2022/10/09 02:44:39;;;;;;;;;;;;;;;14.87;73.89;100063.94;4307977;33;33318;-92
2022/10/09 02:47:15;;;;;;;;;;;;;;;14.73;74.50;100066.03;4309383;33;34443;-89
2022/10/09 02:49:55;;;;;;;;;;;;;;;15.01;73.53;100070.59;4302714;33;34450;-91
2022/10/09 02:52:27;;;;;;;;;;;;;;;15.11;73.03;100077.28;4318092;33;34121;-94
2022/10/09 02:55:06;;;;;;;;;;;;;;;15.18;72.99;100072.78;4310448;33;32999;-92
2022/10/09 02:57:48;;;;;;;;;;;;;;;15.09;73.43;100076.47;4297590;33;37018;-91
2022/10/09 03:00:29;;;;;;;;;;;;;;;15.22;73.13;100083.12;4316945;33;34933;-92
2022/10/09 03:03:05;;;;;;;;;;;;;;;15.30;72.57;100083.75;4312096;33;33641;-92
2022/10/09 03:05:44;;;;;;;;;;;;;;;15.43;72.22;100083.44;4308881;33;33628;-91
2022/10/09 03:08:15;;;;;;;;;;;;;;;15.21;73.10;100091.84;4293097;33;32715;-92
2022/10/09 03:10:58;;;;;;;;;;;;;;;15.01;74.45;100087.13;4301301;33;35687;-94
2022/10/09 03:13:38;;;;;;;;;;;;;;;14.88;75.58;100086.59;4310949;33;36803;-91
2022/10/09 03:16:20;;;;;;;;;;;;;;;15.11;74.88;100082.53;4299097;33;32411;-91
2022/10/09 03:18:54;;;;;;;;;;;;;;;15.12;74.84;100081.63;4302219;33;33769;-91
2022/10/09 03:21:27;;;;;;;;;;;;;;;14.86;76.35;100095.31;4314061;33;33951;-92
2022/10/09 03:24:12;;;;;;;;;;;;;;;14.70;77.52;100081.78;4317888;33;35005;-91
2022/10/09 03:26:49;;;;;;;;;;;;;;;14.95;76.24;100089.88;4298670;33;35740;-96
2022/10/09 03:29:24;;;;;;;;;;;;;;;14.80;76.92;100088.50;4311857;33;33488;-92
2022/10/09 03:32:09;;;;;;;;;;;;;;;14.77;77.37;100099.03;4306340;33;33689;-91
2022/10/09 03:34:48;;;;;;;;;;;;;;;14.87;77.11;100092.69;4318790;33;32926;-91
2022/10/09 03:37:31;;;;;;;;;;;;;;;14.88;77.16;100091.81;4316900;33;33369;-93
2022/10/09 03:40:13;;;;;;;;;;;;;;;15.06;76.25;100094.84;4313028;33;33353;-94
2022/10/09 03:42:53;;;;;;;;;;;;;;;14.89;77.08;100098.72;4312105;33;33928;-91
2022/10/09 03:45:32;;;;;;;;;;;;;;;15.14;76.16;100092.88;4311022;33;35221;-92
2022/10/09 03:48:12;;;;;;;;;;;;;;;15.11;75.76;100095.59;4320820;33;33057;-91
2022/10/09 03:50:56;;;;;;;;;;;;;;;15.26;75.42;100102.19;4313880;33;33629;-90
2022/10/09 03:53:38;;;;;;;;;;;;;;;15.15;75.87;100110.31;4309657;33;33534;-91
2022/10/09 03:56:22;;;;;;;;;;;;;;;15.14;75.89;100111.19;4312936;33;33896;-92
2022/10/09 03:58:54;;;;;;;;;;;;;;;15.19;75.96;100119.75;4311633;33;32868;-94
2022/10/09 04:01:31;;;;;;;;;;;;;;;14.77;77.89;100117.31;4309027;33;36408;-94
2022/10/09 04:04:07;;;;;;;;;;;;;;;14.68;78.89;100118.37;4310751;33;34141;-91
2022/10/09 04:06:49;;;;;;;;;;;;;;;14.69;78.90;100117.50;4314096;33;33571;-92
2022/10/09 04:09:20;;;;;;;;;;;;;;;14.75;78.97;100124.31;4310072;33;32748;-92
2022/10/09 04:12:13;;;;;;;;;;;;;;;15.14;77.27;100122.47;4308730;33;33447;-93
2022/10/09 04:17:24;;;;;;;;;;;;;;;14.93;78.69;100115.16;4299133;33;32631;-93
2022/10/09 04:20:04;;;;;;;;;;;;;;;15.26;76.89;100113.47;4316865;33;31767;-91
2022/10/09 04:22:50;;;;;;;;;;;;;;;15.23;77.09;100115.34;4317727;33;34149;-91
2022/10/09 04:25:24;;;;;;;;;;;;;;;15.24;77.11;100124.87;4323668;33;34918;-91
2022/10/09 04:27:57;;;;;;;;;;;;;;;15.02;77.85;100116.72;4311486;33;35109;-91
2022/10/09 04:30:46;;;;;;;;;;;;;;;15.28;76.67;100105.63;4321545;33;31933;-95
2022/10/09 04:33:29;;;;;;;;;;;;;;;15.07;77.73;100123.53;4328417;33;34856;-94
2022/10/09 04:36:14;;;;;;;;;;;;;;;15.27;76.75;100128.28;4332858;33;34154;-94
2022/10/09 04:38:58;;;;;;;;;;;;;;;15.15;77.33;100141.66;4318684;33;34789;-92
2022/10/09 04:41:36;;;;;;;;;;;;;;;15.26;76.78;100142.22;4316927;33;33518;-91
2022/10/09 04:44:15;;;;;;;;;;;;;;;15.20;77.02;100137.19;4295984;33;33064;-93
2022/10/09 04:46:49;;;;;;;;;;;;;;;15.33;76.43;100149.03;4308735;33;33897;-92
2022/10/09 04:49:25;;;;;;;;;;;;;;;15.00;78.15;100157.69;4313160;33;34672;-95
2022/10/09 04:52:02;;;;;;;;;;;;;;;14.81;79.54;100160.75;4310142;33;33116;-91
2022/10/09 04:57:13;;;;;;;;;;;;;;;14.71;80.48;100191.44;4322173;33;34316;-93
2022/10/09 04:59:43;;;;;;;;;;;;;;;14.62;80.84;100191.66;4298275;33;36747;-91
2022/10/09 05:02:16;;;;;;;;;;;;;;;14.73;80.62;100199.22;4311463;33;33274;-92
2022/10/09 05:05:13;;;;;;;;;;;;;;;14.74;80.91;100195.75;4314719;33;34948;-93
2022/10/09 05:07:50;;;;;;;;;;;;;;;15.03;79.21;100194.19;4316633;33;35367;-90
2022/10/09 05:10:37;;;;;;;;;;;;;;;15.29;77.88;100178.75;4296859;33;36621;-95
2022/10/09 05:13:21;;;;;;;;;;;;;;;15.26;77.76;100184.06;4313566;33;33960;-92
2022/10/09 05:16:04;;;;;;;;;;;;;;;15.19;78.15;100181.62;4313902;33;33758;-93
2022/10/09 05:18:42;;;;;;;;;;;;;;;15.36;76.96;100190.75;4311856;33;33554;-92
2022/10/09 05:21:26;;;;;;;;;;;;;;;15.45;77.07;100186.22;4326430;33;33754;-92
2022/10/09 05:24:11;;;;;;;;;;;;;;;15.48;76.50;100186.13;4307353;33;33923;-93
2022/10/09 05:27:11;;;;;;;;;;;;;;;15.60;75.89;100191.06;4311953;33;35916;-94
2022/10/09 05:29:57;;;;;;;;;;;;;;;15.51;76.22;100197.41;4300987;33;36606;-93
2022/10/09 05:32:35;;;;;;;;;;;;;;;15.13;78.28;100196.56;4308092;33;34153;-90
2022/10/09 05:35:20;;;;;;;;;;;;;;;15.21;78.18;100188.53;4298410;33;32339;-94
2022/10/09 05:37:51;;;;;;;;;;;;;;;15.20;77.88;100189.44;4312730;33;34507;-91
2022/10/09 05:40:32;;;;;;;;;;;;;;;15.25;77.38;100187.56;4319114;33;34800;-92
2022/10/09 05:43:32;;;;;;;;;;;;;;;15.26;77.71;100193.66;4310108;33;34301;-93
2022/10/09 05:46:12;;;;;;;;;;;;;;;15.11;77.41;100200.13;4304325;33;32749;-92
2022/10/09 05:48:54;;;;;;;;;;;;;;;15.07;78.13;100203.69;4294579;33;31993;-92
2022/10/09 05:51:32;;;;;;;;;;;;;;;14.92;78.64;100199.69;4313057;33;34061;-91
2022/10/09 05:54:02;;;;;;;;;;;;;;;15.13;78.09;100198.34;4315778;33;34483;-91
2022/10/09 05:57:02;;;;;;;;;;;;;;;15.18;77.49;100201.69;4313005;33;33726;-92
2022/10/09 05:59:42;;;;;;;;;;;;;;;15.20;77.36;100199.91;4318761;33;33322;-93
2022/10/09 06:02:22;;;;;;;;;;;;;;;15.43;76.04;100199.31;4312936;33;35002;-93
2022/10/09 06:05:04;;;;;;;;;;;;;;;15.32;76.61;100197.00;4309737;33;33793;-92
2022/10/09 06:07:37;;;;;;;;;;;;;;;15.31;76.58;100205.72;4297226;33;32737;-91
2022/10/09 06:10:18;;;;;;;;;;;;;;;15.59;75.13;100205.03;4311771;33;34589;-94
2022/10/09 06:12:55;;;;;;;;;;;;;;;15.50;75.46;100203.50;4310427;33;35883;-93
2022/10/09 06:15:33;;;;;;;;;;;;;;;15.40;76.11;100207.25;4312048;33;34104;-92
2022/10/09 06:18:16;;;;;;;;;;;;;;;15.32;76.30;100220.50;4302276;33;33806;-92
2022/10/09 06:23:39;;;;;;;;;;;;;;;15.42;75.71;100235.97;4313305;33;34261;-92
2022/10/09 06:26:22;;;;;;;;;;;;;;;15.24;76.43;100243.34;4303120;33;32799;-92
2022/10/09 06:29:08;;;;;;;;;;;;;;;15.14;77.14;100242.69;4318157;33;33254;-92
2022/10/09 06:32:10;;;;;;;;;;;;;;;15.06;77.71;100238.56;4303951;33;36247;-92
2022/10/09 06:34:49;;;;;;;;;;;;;;;15.27;77.18;100245.03;4310903;33;37362;-93
2022/10/09 06:37:36;;;;;;;;;;;;;;;15.33;76.75;100253.59;4315740;33;34597;-93
2022/10/09 06:40:40;;;;;;;;;;;;;;;15.33;76.58;100253.59;4309943;33;33426;-96
2022/10/09 06:43:22;;;;;;;;;;;;;;;15.53;75.81;100254.88;4314957;33;34294;-91
2022/10/09 06:48:49;;;;;;;;;;;;;;;15.47;75.93;100255.88;4320355;33;35780;-95
2022/10/09 06:51:59;;;;;;;;;;;;;;;15.53;75.91;100257.47;4315117;33;32506;-93
2022/10/09 06:54:45;;;;;;;;;;;;;;;15.69;75.25;100269.28;4302948;33;36449;-91
2022/10/09 06:57:37;;;;;;;;;;;;;;;16.01;73.67;100265.00;4306305;33;34282;-93
2022/10/09 07:00:28;;;;;;;;;;;;;;;15.95;73.25;100267.81;4308247;33;37210;-93
2022/10/09 07:03:23;;;;;;;;;;;;;;;15.78;74.23;100266.47;4296593;33;33374;-93
2022/10/09 07:06:09;;;;;;;;;;;;;;;16.18;72.15;100264.56;4309368;33;32954;-93
2022/10/09 07:08:53;;;;;;;;;;;;;;;16.27;71.19;100274.78;4288793;33;33334;-92
2022/10/09 07:11:43;;;;;;;;;;;;;;;16.27;71.98;100266.09;4292976;33;34472;-94
2022/10/09 07:14:27;;;;;;;;;;;;;;;16.34;70.69;100270.25;4313125;33;36121;-93
2022/10/09 07:17:20;;;;;;;;;;;;;;;16.32;70.78;100280.75;4298056;33;32794;-94
2022/10/09 07:20:01;;;;;;;;;;;;;;;16.36;70.72;100284.16;4284797;33;33622;-94
2022/10/09 07:23:26;;;;;;;;;;;;;;;16.50;70.21;100284.63;4282867;33;33616;-94
2022/10/09 07:26:31;;;;;;;;;;;;;;;16.88;69.06;100287.09;4298152;33;32955;-92
2022/10/09 07:29:45;;;;;;;;;;;;;;;16.85;68.87;100281.03;4303619;33;36234;-95
2022/10/09 07:32:28;;;;;;;;;;;;;;;16.93;67.42;100288.66;4310529;33;34087;-92
2022/10/09 07:35:08;;;;;;;;;;;;;;;16.89;67.19;100291.41;4295403;33;34061;-93
2022/10/09 07:38:09;;;;;;;;;;;;;;;17.01;66.44;100294.53;4295488;33;33606;-94
2022/10/09 07:41:04;;;;;;;;;;;;;;;16.78;67.42;100295.22;4298931;33;35561;-94
2022/10/09 07:44:04;;;;;;;;;;;;;;;17.15;66.50;100299.34;4295383;33;34643;-92
2022/10/09 07:47:05;;;;;;;;;;;;;;;17.42;64.97;100294.16;4303048;33;33987;-92
2022/10/09 07:49:38;;;;;;;;;;;;;;;17.15;66.01;100295.88;4298403;33;33399;-93
2022/10/09 07:52:30;;;;;;;;;;;;;;;17.40;65.71;100298.63;4283297;33;34473;-94
2022/10/09 07:55:22;;;;;;;;;;;;;;;17.44;65.74;100300.22;4292179;33;34105;-94
2022/10/09 07:58:17;;;;;;;;;;;;;;;17.44;64.92;100300.22;4295562;33;33582;-93
2022/10/09 08:01:06;;;;;;;;;;;;;;;17.37;64.64;100296.06;4282989;33;33223;-93
2022/10/09 08:03:53;;;;;;;;;;;;;;;17.34;65.19;100290.91;4307542;33;35190;-92
2022/10/09 08:06:34;;;;;;;;;;;;;;;17.58;63.45;100297.16;4314853;33;34323;-93
2022/10/09 08:09:30;;;;;;;;;;;;;;;17.49;63.57;100296.56;4316452;33;34254;-93
2022/10/09 08:12:15;;;;;;;;;;;;;;;17.30;63.92;100284.03;4308168;33;33726;-93
2022/10/09 08:15:05;;;;;;;;;;;;;;;17.54;64.06;100293.78;4321563;33;37948;-93
2022/10/09 08:18:01;;;;;;;;;;;;;;;17.51;64.61;100295.63;4302535;33;34570;-93
2022/10/09 08:20:45;;;;;;;;;;;;;;;17.41;65.63;100288.06;4321779;33;33929;-92
2022/10/09 08:23:28;;;;;;;;;;;;;;;17.26;65.40;100292.03;4293972;33;32736;-93
2022/10/09 08:26:25;;;;;;;;;;;;;;;17.47;64.99;100292.25;4323253;33;36354;-93
2022/10/09 08:33:05;;;;;;;;;;;;;;;17.63;64.41;100295.22;4313087;33;37124;-94
2022/10/09 08:36:19;;;;;;;;;;;;;;;17.81;62.71;100299.91;4314701;33;33913;-96
2022/10/09 08:39:21;;;;;;;;;;;;;;;18.08;62.74;100305.16;4304799;33;34285;-91
2022/10/09 08:42:26;;;;;;;;;;;;;;;17.98;62.84;100312.47;4317072;33;36986;-95
2022/10/09 08:45:31;;;;;;;;;;;;;;;18.14;62.05;100312.81;4321150;33;35585;-93
2022/10/09 08:55:52;;;;;;;;;;;;;;;18.15;60.32;100319.78;4308503;33;35755;-93
2022/10/09 09:02:12;;;;;;;;;;;;;;;18.60;57.79;100324.31;4243422;32;34238;-93
2022/10/09 09:09:10;;;;;;;;;;;;;;;18.58;56.92;100320.91;4270823;33;36437;-93
2022/10/09 09:15:33;;;;;;;;;;;;;;;18.57;56.78;100328.84;4270149;33;32924;-92
2022/10/09 09:18:52;;;;;;;;;;;;;;;18.66;56.35;100334.59;4267568;33;36162;-93
2022/10/09 09:25:24;;;;;;;;;;;;;;;18.83;54.72;100333.19;4284542;33;34776;-93
2022/10/09 09:28:22;;;;;;;;;;;;;;;18.91;54.48;100328.47;4269699;33;33403;-92
2022/10/09 09:31:28;;;;;;;;;;;;;;;18.97;52.20;100328.25;4281371;33;34541;-94
2022/10/09 09:34:49;;;;;;;;;;;;;;;18.91;53.70;100336.38;4280046;33;33516;-94
2022/10/09 09:38:08;;;;;;;;;;;;;;;18.98;53.32;100335.22;4278223;33;36070;-92
2022/10/09 09:41:10;;;;;;;;;;;;;;;19.30;52.42;100335.75;4283311;33;33072;-92
2022/10/09 09:44:08;;;;;;;;;;;;;;;19.36;53.04;100349.53;4283550;33;34495;-92
2022/10/09 09:46:55;;;;;;;;;;;;;;;19.61;52.27;100343.31;4277915;33;35107;-95
2022/10/09 09:49:59;;;;;;;;;;;;;;;19.68;51.43;100344.81;4269875;33;36562;-92
2022/10/09 09:53:03;;;;;;;;;;;;;;;19.90;50.92;100350.03;4291215;33;36296;-92
2022/10/09 09:56:13;;;;;;;;;;;;;;;19.81;51.53;100339.88;4311196;33;33266;-93
2022/10/09 09:59:24;;;;;;;;;;;;;;;20.32;47.04;100343.03;4322554;33;33471;-93
2022/10/09 10:02:52;;;;;;;;;;;;;;;20.04;47.87;100347.69;4297343;33;35258;-93
2022/10/09 10:05:49;;;;;;;;;;;;;;;20.25;49.22;100348.56;4297650;33;35678;-92
2022/10/09 10:08:59;;;;;;;;;;;;;;;20.42;48.01;100347.84;4307891;33;34150;-94
2022/10/09 10:12:08;;;;;;;;;;;;;;;20.47;49.05;100347.66;4308549;33;36345;-95
2022/10/09 10:15:39;;;;;;;;;;;;;;;20.32;47.70;100350.94;4294595;33;35470;-92
2022/10/09 10:22:56;;;;;;;;;;;;;;;20.45;45.51;100352.97;4297619;33;34665;-93
2022/10/09 10:30:19;;;;;;;;;;;;;;;20.85;48.32;100351.25;4311088;33;36357;-94
2022/10/09 10:33:23;;;;;;;;;;;;;;;21.19;46.02;100351.47;4314929;33;33720;-93
2022/10/09 10:44:38;;;;;;;;;;;;;;;21.24;44.45;100352.13;4195027;34;36094;-93
2022/10/09 10:48:31;;;;;;;;;;;;;;;21.26;44.99;100352.91;4189469;34;33300;-92
2022/10/09 10:56:11;;;;;;;;;;;;;;;21.44;46.64;100346.78;4213275;33;35449;-92
2022/10/09 10:59:33;;;;;;;;;;;;;;;21.55;44.68;100340.97;4205582;34;36760;-93
2022/10/09 11:02:54;;;;;;;;;;;;;;;21.56;44.14;100345.34;4199080;34;33141;-94
2022/10/09 11:06:19;;;;;;;;;;;;;;;21.16;45.55;100336.63;4202241;34;35215;-93
2022/10/09 11:09:40;;;;;;;;;;;;;;;21.01;45.94;100332.09;4203074;33;36355;-95
2022/10/09 11:13:07;;;;;;;;;;;;;;;21.67;44.36;100335.13;4227113;33;36580;-94
2022/10/09 11:19:49;;;;;;;;;;;;;;;21.80;44.06;100337.16;4241789;33;34122;-93
2022/10/09 11:22:47;;;;;;;;;;;;;;;21.64;44.19;100342.34;4268654;33;34178;-94
2022/10/09 11:25:47;;;;;;;;;;;;;;;21.06;44.79;100335.37;4284515;33;36393;-95
2022/10/09 11:28:38;;;;;;;;;;;;;;;20.85;45.62;100332.81;4277739;33;32031;-92
2022/10/09 11:31:22;;;;;;;;;;;;;;;21.19;43.49;100327.72;4286718;33;34611;-92
2022/10/09 11:33:56;;;;;;;;;;;;;;;21.25;43.46;100336.22;4279793;33;34144;-92
2022/10/09 11:36:43;;;;;;;;;;;;;;;21.09;43.44;100322.91;4279457;33;33380;-92
2022/10/09 11:39:31;;;;;;;;;;;;;;;21.40;42.78;100326.75;4280094;33;35015;-91
2022/10/09 11:42:37;;;;;;;;;;;;;;;21.48;43.33;100321.97;4282391;33;35815;-93
2022/10/09 11:45:30;;;;;;;;;;;;;;;21.35;43.17;100325.22;4276645;33;34140;-92
2022/10/09 11:48:36;;;;;;;;;;;;;;;21.36;43.70;100316.38;4282545;33;34410;-92
2022/10/09 11:51:25;;;;;;;;;;;;;;;21.24;44.50;100309.91;4270427;33;34168;-92
2022/10/09 11:54:03;;;;;;;;;;;;;;;21.58;41.60;100314.47;4283611;33;32636;-92
2022/10/09 11:57:09;;;;;;;;;;;;;;;21.59;42.33;100323.22;4283106;33;34337;-92
2022/10/09 12:03:32;;;;;;;;;;;;;;;21.76;41.95;100322.41;4270147;33;33568;-92
2022/10/09 12:06:11;;;;;;;;;;;;;;;21.50;42.78;100317.47;4273413;33;35199;-91
2022/10/09 12:09:14;;;;;;;;;;;;;;;21.80;42.06;100316.03;4275004;33;34719;-95
2022/10/09 12:12:10;;;;;;;;;;;;;;;21.77;42.90;100314.41;4278741;33;34396;-92
2022/10/09 12:15:19;;;;;;;;;;;;;;;21.48;43.03;100307.87;4288177;33;32453;-94
2022/10/09 12:21:26;;;;;;;;;;;;;;;21.70;42.31;100311.22;4278600;33;34855;-95
2022/10/09 12:24:15;;;;;;;;;;;;;;;21.70;41.88;100307.72;4267610;33;33139;-93
2022/10/09 12:26:53;;;;;;;;;;;;;;;21.31;42.56;100304.28;4266757;33;32800;-91
2022/10/09 12:29:54;;;;;;;;;;;;;;;21.97;40.64;100310.75;4283625;33;35256;-93
2022/10/09 12:32:44;;;;;;;;;;;;;;;21.73;42.13;100308.41;4284280;33;34965;-93
2022/10/09 12:35:41;;;;;;;;;;;;;;;21.90;40.61;100312.00;4283916;33;35076;-92
2022/10/09 12:38:35;;;;;;;;;;;;;;;22.04;41.85;100308.66;4269115;33;33075;-92
2022/10/09 12:41:32;;;;;;;;;;;;;;;22.08;42.21;100311.06;4275967;33;35526;-94
2022/10/09 12:44:42;;;;;;;;;;;;;;;21.92;42.47;100296.94;4265438;33;33604;-93
2022/10/09 12:47:46;;;;;;;;;;;;;;;22.00;42.52;100301.81;4265778;33;36826;-92
2022/10/09 12:50:24;;;;;;;;;;;;;;;22.00;43.23;100304.47;4266879;33;35016;-94
2022/10/09 12:53:15;;;;;;;;;;;;;;;22.11;43.92;100296.84;4271185;33;33573;-92
2022/10/09 12:56:12;;;;;;;;;;;;;;;22.16;44.92;100293.03;4278983;33;32665;-93
2022/10/09 12:58:58;;;;;;;;;;;;;;;22.41;43.91;100286.50;4281541;33;37002;-92
2022/10/09 13:01:44;;;;;;;;;;;;;;;22.27;45.05;100283.72;4281720;33;35769;-92
2022/10/09 13:04:32;;;;;;;;;;;;;;;22.43;43.93;100281.13;4268615;33;36800;-94
2022/10/09 13:07:26;;;;;;;;;;;;;;;22.52;44.94;100272.69;4264617;33;33938;-93
2022/10/09 13:10:22;;;;;;;;;;;;;;;22.58;44.70;100272.38;4278650;33;34900;-93
2022/10/09 13:13:35;;;;;;;;;;;;;;;22.67;44.94;100273.69;4265122;33;35882;-93
2022/10/09 13:16:08;;;;;;;;;;;;;;;22.66;43.83;100267.50;4263293;33;37152;-93
2022/10/09 13:19:05;;;;;;;;;;;;;;;22.60;44.34;100267.84;4263416;33;36521;-92
2022/10/09 13:22:29;;;;;;;;;;;;;;;22.94;43.44;100261.56;4264432;33;34373;-91
2022/10/09 13:25:25;;;;;;;;;;;;;;;22.32;45.45;100271.09;4266284;33;33680;-93
2022/10/09 13:28:05;;;;;;;;;;;;;;;22.89;45.74;100266.28;4265383;33;37540;-93
2022/10/09 13:30:48;;;;;;;;;;;;;;;23.26;45.97;100271.34;4282068;33;34657;-92
2022/10/09 13:33:29;;;;;;;;;;;;;;;23.17;45.67;100267.41;4278266;33;36254;-92
2022/10/09 13:36:06;;;;;;;;;;;;;;;23.28;45.81;100264.16;4266359;33;36845;-93
2022/10/09 13:39:28;;;;;;;;;;;;;;;23.20;45.21;100264.59;4276341;33;35071;-92
2022/10/09 13:42:11;;;;;;;;;;;;;;;23.38;44.85;100267.97;4276746;33;35320;-92
2022/10/09 13:44:43;;;;;;;;;;;;;;;23.45;44.99;100269.34;4275546;33;33506;-92
2022/10/09 13:47:21;;;;;;;;;;;;;;;23.39;44.64;100270.56;4266387;33;33980;-91
2022/10/09 13:49:54;;;;;;;;;;;;;;;23.45;45.03;100257.91;4282827;33;35496;-92
2022/10/09 13:52:24;;;;;;;;;;;;;;;23.25;45.80;100254.59;4273840;33;35382;-92
2022/10/09 13:55:04;;;;;;;;;;;;;;;23.27;44.96;100258.03;4263712;33;37737;-91
2022/10/09 13:57:48;;;;;;;;;;;;;;;23.18;45.94;100259.38;4274061;33;33310;-93
2022/10/09 14:00:30;;;;;;;;;;;;;;;23.15;45.43;100264.00;4277293;33;34879;-92
2022/10/09 14:03:15;;;;;;;;;;;;;;;23.13;44.89;100256.16;4271537;33;36373;-94
2022/10/09 14:06:05;;;;;;;;;;;;;;;23.12;44.54;100253.56;4270093;33;35437;-93
2022/10/09 14:15:57;;;;;;;;;;;;;;;22.95;45.98;100257.13;4283055;33;36522;-93
2022/10/09 14:18:58;;;;;;;;;;;;;;;22.87;46.95;100268.13;4270876;33;34091;-93
2022/10/09 14:22:12;;;;;;;;;;;;;;;22.86;47.12;100257.63;4278829;33;33449;-92
2022/10/09 14:25:10;;;;;;;;;;;;;;;22.79;46.05;100259.78;4282321;33;35069;-94
2022/10/09 14:27:50;;;;;;;;;;;;;;;22.75;45.26;100252.94;4281589;33;34569;-91
2022/10/09 14:30:56;;;;;;;;;;;;;;;22.49;46.54;100254.34;4276002;33;33469;-92
2022/10/09 14:33:55;;;;;;;;;;;;;;;22.36;46.86;100262.09;4278518;33;33823;-91
2022/10/09 14:37:07;;;;;;;;;;;;;;;22.44;47.25;100259.03;4277693;33;34695;-91
2022/10/09 14:43:24;;;;;;;;;;;;;;;22.19;49.08;100256.81;4278919;33;35591;-91
2022/10/09 14:46:20;;;;;;;;;;;;;;;22.03;50.25;100260.22;4267468;33;35582;-94
2022/10/09 14:49:06;;;;;;;;;;;;;;;21.98;49.56;100256.12;4277209;33;34484;-92
2022/10/09 14:51:50;;;;;;;;;;;;;;;21.71;49.97;100260.09;4269815;33;33247;-91
2022/10/09 14:54:38;;;;;;;;;;;;;;;21.77;49.71;100258.94;4282135;33;35425;-91
2022/10/09 14:57:42;;;;;;;;;;;;;;;21.72;50.21;100266.22;4282414;33;34284;-93
2022/10/09 15:00:31;;;;;;;;;;;;;;;21.71;50.98;100268.00;4279001;33;33572;-92
2022/10/09 15:03:12;;;;;;;;;;;;;;;21.54;51.65;100267.16;4283548;33;34467;-92
2022/10/09 15:06:26;;;;;;;;;;;;;;;21.33;52.02;100259.31;4267394;33;36893;-90
2022/10/09 15:09:14;;;;;;;;;;;;;;;21.27;52.60;100260.47;4267658;33;32344;-90
2022/10/09 15:12:16;;;;;;;;;;;;;;;21.14;52.80;100261.13;4283241;33;34484;-91
2022/10/09 15:15:30;;;;;;;;;;;;;;;21.07;52.26;100263.22;4273987;33;33792;-91
2022/10/09 15:18:17;;;;;;;;;;;;;;;21.07;52.81;100263.22;4275671;33;32592;-92
2022/10/09 15:20:55;;;;;;;;;;;;;;;20.93;53.06;100268.28;4292085;33;33325;-90
2022/10/09 15:23:55;;;;;;;;;;;;;;;20.82;53.59;100272.25;4272566;33;33160;-92
2022/10/09 15:26:37;;;;;;;;;;;;;;;20.62;54.36;100269.69;4282811;33;34987;-93
2022/10/09 15:29:16;;;;;;;;;;;;;;;20.57;55.00;100272.53;4281040;33;33755;-90
2022/10/09 15:32:05;;;;;;;;;;;;;;;20.55;55.05;100273.50;4285918;33;32902;-90
2022/10/09 15:34:39;;;;;;;;;;;;;;;20.44;55.27;100273.97;4274752;33;33526;-90
2022/10/09 15:37:23;;;;;;;;;;;;;;;20.32;55.46;100275.41;4279772;33;34612;-92
2022/10/09 15:40:05;;;;;;;;;;;;;;;20.30;55.49;100276.41;4279214;33;34750;-90
2022/10/09 15:42:50;;;;;;;;;;;;;;;20.15;55.89;100277.87;4283631;33;32148;-90